sensor_id;sensor_type;location;lat;lon;timestamp;temperature;humidity
23335;DHT22;11839;48.598;8.870;2023-08-31T00:02:08;16.80;99.90
23335;DHT22;11839;48.598;8.870;2023-08-31T00:04:35;17.00;99.90
23335;DHT22;11839;48.598;8.870;2023-08-31T00:07:01;17.00;99.90
23335;DHT22;11839;48.598;8.870;2023-08-31T00:09:29;17.00;99.90
23335;DHT22;11839;48.598;8.870;2023-08-31T00:11:56;17.00;99.90
23335;DHT22;11839;48.598;8.870;2023-08-31T00:14:23;16.90;99.90
23335;DHT22;11839;48.598;8.870;2023-08-31T00:16:51;16.90;99.90
23335;DHT22;11839;48.598;8.870;2023-08-31T00:19:18;16.70;99.90
23335;DHT22;11839;48.598;8.870;2023-08-31T00:21:45;16.80;99.90
23335;DHT22;11839;48.598;8.870;2023-08-31T00:24:12;16.90;99.90
23335;DHT22;11839;48.598;8.870;2023-08-31T00:26:39;16.90;99.90
23335;DHT22;11839;48.598;8.870;2023-08-31T00:29:08;16.80;99.90
23335;DHT22;11839;48.598;8.870;2023-08-31T00:31:36;16.80;99.90
23335;DHT22;11839;48.598;8.870;2023-08-31T00:34:04;16.80;99.90
23335;DHT22;11839;48.598;8.870;2023-08-31T00:36:32;16.80;99.90
23335;DHT22;11839;48.598;8.870;2023-08-31T00:39:02;16.80;99.90
23335;DHT22;11839;48.598;8.870;2023-08-31T00:41:31;16.90;99.90
23335;DHT22;11839;48.598;8.870;2023-08-31T00:43:57;17.00;99.90
23335;DHT22;11839;48.598;8.870;2023-08-31T00:46:24;16.90;99.90
23335;DHT22;11839;48.598;8.870;2023-08-31T00:48:53;16.90;99.90
23335;DHT22;11839;48.598;8.870;2023-08-31T00:51:21;16.90;99.90
23335;DHT22;11839;48.598;8.870;2023-08-31T00:53:48;16.90;99.90
23335;DHT22;11839;48.598;8.870;2023-08-31T00:56:18;16.80;99.90
23335;DHT22;11839;48.598;8.870;2023-08-31T00:58:45;16.80;99.90
23335;DHT22;11839;48.598;8.870;2023-08-31T01:01:20;16.70;99.90
23335;DHT22;11839;48.598;8.870;2023-08-31T01:03:55;16.70;99.90
23335;DHT22;11839;48.598;8.870;2023-08-31T01:06:31;16.80;99.90
23335;DHT22;11839;48.598;8.870;2023-08-31T01:09:05;16.20;99.90
23335;DHT22;11839;48.598;8.870;2023-08-31T01:11:44;15.90;99.90
23335;DHT22;11839;48.598;8.870;2023-08-31T01:14:16;15.90;99.90
23335;DHT22;11839;48.598;8.870;2023-08-31T01:16:45;16.00;99.90
23335;DHT22;11839;48.598;8.870;2023-08-31T01:19:23;15.80;99.90
23335;DHT22;11839;48.598;8.870;2023-08-31T01:21:59;16.10;99.90
23335;DHT22;11839;48.598;8.870;2023-08-31T01:24:28;16.20;99.90
23335;DHT22;11839;48.598;8.870;2023-08-31T01:26:55;16.20;99.90
23335;DHT22;11839;48.598;8.870;2023-08-31T01:29:22;16.20;99.90
23335;DHT22;11839;48.598;8.870;2023-08-31T01:31:49;16.20;99.90
23335;DHT22;11839;48.598;8.870;2023-08-31T01:34:16;16.20;99.90
23335;DHT22;11839;48.598;8.870;2023-08-31T01:36:45;16.10;99.90
23335;DHT22;11839;48.598;8.870;2023-08-31T01:39:16;16.30;99.90
23335;DHT22;11839;48.598;8.870;2023-08-31T01:41:51;16.30;99.90
23335;DHT22;11839;48.598;8.870;2023-08-31T01:44:22;16.20;99.90
23335;DHT22;11839;48.598;8.870;2023-08-31T01:46:52;16.20;99.90
23335;DHT22;11839;48.598;8.870;2023-08-31T01:49:19;16.10;99.90
23335;DHT22;11839;48.598;8.870;2023-08-31T01:51:46;16.10;99.90
23335;DHT22;11839;48.598;8.870;2023-08-31T01:54:13;16.00;99.90
23335;DHT22;11839;48.598;8.870;2023-08-31T01:56:40;16.20;99.90
23335;DHT22;11839;48.598;8.870;2023-08-31T01:59:08;16.30;99.90
23335;DHT22;11839;48.598;8.870;2023-08-31T02:01:34;16.40;99.90
23335;DHT22;11839;48.598;8.870;2023-08-31T02:04:01;16.40;99.90
23335;DHT22;11839;48.598;8.870;2023-08-31T02:06:28;16.30;99.90
23335;DHT22;11839;48.598;8.870;2023-08-31T02:08:55;16.10;99.90
23335;DHT22;11839;48.598;8.870;2023-08-31T02:11:22;16.10;99.90
23335;DHT22;11839;48.598;8.870;2023-08-31T02:13:48;16.20;99.90
23335;DHT22;11839;48.598;8.870;2023-08-31T02:16:16;16.30;99.90
23335;DHT22;11839;48.598;8.870;2023-08-31T02:18:43;16.20;99.90
23335;DHT22;11839;48.598;8.870;2023-08-31T02:21:10;16.20;99.90
23335;DHT22;11839;48.598;8.870;2023-08-31T02:23:38;16.10;99.90
23335;DHT22;11839;48.598;8.870;2023-08-31T02:26:04;15.80;99.90
23335;DHT22;11839;48.598;8.870;2023-08-31T02:28:31;15.80;99.90
23335;DHT22;11839;48.598;8.870;2023-08-31T02:30:58;15.80;99.90
23335;DHT22;11839;48.598;8.870;2023-08-31T02:33:27;15.80;99.90
23335;DHT22;11839;48.598;8.870;2023-08-31T02:35:54;15.80;99.90
23335;DHT22;11839;48.598;8.870;2023-08-31T02:38:21;15.70;99.90
23335;DHT22;11839;48.598;8.870;2023-08-31T02:40:48;15.90;99.90
23335;DHT22;11839;48.598;8.870;2023-08-31T02:43:15;15.80;99.90
23335;DHT22;11839;48.598;8.870;2023-08-31T02:45:42;15.70;99.90
23335;DHT22;11839;48.598;8.870;2023-08-31T02:48:09;15.80;99.90
23335;DHT22;11839;48.598;8.870;2023-08-31T02:50:38;16.00;99.90
23335;DHT22;11839;48.598;8.870;2023-08-31T02:53:05;15.90;99.90
23335;DHT22;11839;48.598;8.870;2023-08-31T02:55:32;15.80;99.90
23335;DHT22;11839;48.598;8.870;2023-08-31T02:57:59;15.90;99.90
23335;DHT22;11839;48.598;8.870;2023-08-31T03:00:26;16.00;99.90
23335;DHT22;11839;48.598;8.870;2023-08-31T03:02:53;15.60;99.90
23335;DHT22;11839;48.598;8.870;2023-08-31T03:05:20;15.70;99.90
23335;DHT22;11839;48.598;8.870;2023-08-31T03:07:48;15.80;99.90
23335;DHT22;11839;48.598;8.870;2023-08-31T03:10:15;16.00;99.90
23335;DHT22;11839;48.598;8.870;2023-08-31T03:12:42;16.00;99.90
23335;DHT22;11839;48.598;8.870;2023-08-31T03:15:09;15.90;99.90
23335;DHT22;11839;48.598;8.870;2023-08-31T03:17:36;15.70;99.90
23335;DHT22;11839;48.598;8.870;2023-08-31T03:20:03;15.40;99.90
23335;DHT22;11839;48.598;8.870;2023-08-31T03:22:32;15.40;99.90
23335;DHT22;11839;48.598;8.870;2023-08-31T03:25:01;15.40;99.90
23335;DHT22;11839;48.598;8.870;2023-08-31T03:27:27;15.30;99.90
23335;DHT22;11839;48.598;8.870;2023-08-31T03:29:54;15.40;99.90
23335;DHT22;11839;48.598;8.870;2023-08-31T03:32:21;15.10;99.90
23335;DHT22;11839;48.598;8.870;2023-08-31T03:34:48;15.00;99.90
23335;DHT22;11839;48.598;8.870;2023-08-31T03:37:15;15.20;99.90
23335;DHT22;11839;48.598;8.870;2023-08-31T03:39:42;15.10;99.90
23335;DHT22;11839;48.598;8.870;2023-08-31T03:42:10;15.10;99.90
23335;DHT22;11839;48.598;8.870;2023-08-31T03:44:37;15.30;99.90
23335;DHT22;11839;48.598;8.870;2023-08-31T03:47:04;15.30;99.90
23335;DHT22;11839;48.598;8.870;2023-08-31T03:49:31;15.60;99.90
23335;DHT22;11839;48.598;8.870;2023-08-31T03:51:58;15.80;99.90
23335;DHT22;11839;48.598;8.870;2023-08-31T03:54:25;15.90;99.90
23335;DHT22;11839;48.598;8.870;2023-08-31T03:56:52;15.70;99.90
23335;DHT22;11839;48.598;8.870;2023-08-31T03:59:20;15.80;99.90
23335;DHT22;11839;48.598;8.870;2023-08-31T04:01:47;16.00;99.90
23335;DHT22;11839;48.598;8.870;2023-08-31T04:04:14;16.00;99.90
23335;DHT22;11839;48.598;8.870;2023-08-31T04:06:40;16.00;99.90
23335;DHT22;11839;48.598;8.870;2023-08-31T04:09:07;15.80;99.90
23335;DHT22;11839;48.598;8.870;2023-08-31T04:11:34;15.80;99.90
23335;DHT22;11839;48.598;8.870;2023-08-31T04:14:01;15.70;99.90
23335;DHT22;11839;48.598;8.870;2023-08-31T04:16:29;15.80;99.90
23335;DHT22;11839;48.598;8.870;2023-08-31T04:18:56;15.40;99.90
23335;DHT22;11839;48.598;8.870;2023-08-31T04:21:22;15.20;99.90
23335;DHT22;11839;48.598;8.870;2023-08-31T04:23:49;14.90;99.90
23335;DHT22;11839;48.598;8.870;2023-08-31T04:26:16;15.10;99.90
23335;DHT22;11839;48.598;8.870;2023-08-31T04:28:43;15.30;99.90
23335;DHT22;11839;48.598;8.870;2023-08-31T04:31:10;15.30;99.90
23335;DHT22;11839;48.598;8.870;2023-08-31T04:33:38;15.40;99.90
23335;DHT22;11839;48.598;8.870;2023-08-31T04:36:05;15.30;99.90
23335;DHT22;11839;48.598;8.870;2023-08-31T04:38:33;15.10;99.90
23335;DHT22;11839;48.598;8.870;2023-08-31T04:41:00;15.30;99.90
23335;DHT22;11839;48.598;8.870;2023-08-31T04:43:27;15.50;99.90
23335;DHT22;11839;48.598;8.870;2023-08-31T04:45:54;15.60;99.90
23335;DHT22;11839;48.598;8.870;2023-08-31T04:48:21;15.50;99.90
23335;DHT22;11839;48.598;8.870;2023-08-31T04:50:49;15.60;99.90
23335;DHT22;11839;48.598;8.870;2023-08-31T04:53:16;15.60;99.90
23335;DHT22;11839;48.598;8.870;2023-08-31T04:55:43;15.70;99.90
23335;DHT22;11839;48.598;8.870;2023-08-31T04:58:10;15.60;99.90
23335;DHT22;11839;48.598;8.870;2023-08-31T05:00:36;15.60;99.90
23335;DHT22;11839;48.598;8.870;2023-08-31T05:03:04;15.50;99.90
23335;DHT22;11839;48.598;8.870;2023-08-31T05:05:31;15.50;99.90
23335;DHT22;11839;48.598;8.870;2023-08-31T05:07:59;15.30;99.90
23335;DHT22;11839;48.598;8.870;2023-08-31T05:10:26;15.20;99.90
23335;DHT22;11839;48.598;8.870;2023-08-31T05:12:53;15.20;99.90
23335;DHT22;11839;48.598;8.870;2023-08-31T05:15:19;15.70;99.90
23335;DHT22;11839;48.598;8.870;2023-08-31T05:17:46;15.70;99.90
23335;DHT22;11839;48.598;8.870;2023-08-31T05:20:14;15.70;99.90
23335;DHT22;11839;48.598;8.870;2023-08-31T05:22:40;15.50;99.90
23335;DHT22;11839;48.598;8.870;2023-08-31T05:25:09;15.60;99.90
23335;DHT22;11839;48.598;8.870;2023-08-31T05:27:35;15.40;99.90
23335;DHT22;11839;48.598;8.870;2023-08-31T05:30:03;15.50;99.90
23335;DHT22;11839;48.598;8.870;2023-08-31T05:32:30;15.70;99.90
23335;DHT22;11839;48.598;8.870;2023-08-31T05:34:57;15.80;99.90
23335;DHT22;11839;48.598;8.870;2023-08-31T05:37:25;15.90;99.90
23335;DHT22;11839;48.598;8.870;2023-08-31T05:39:51;15.90;99.90
23335;DHT22;11839;48.598;8.870;2023-08-31T05:42:19;15.90;99.90
23335;DHT22;11839;48.598;8.870;2023-08-31T05:44:46;16.00;99.90
23335;DHT22;11839;48.598;8.870;2023-08-31T05:47:13;15.90;99.90
23335;DHT22;11839;48.598;8.870;2023-08-31T05:49:40;15.90;99.90
23335;DHT22;11839;48.598;8.870;2023-08-31T05:52:06;16.00;99.90
23335;DHT22;11839;48.598;8.870;2023-08-31T05:54:34;16.20;99.90
23335;DHT22;11839;48.598;8.870;2023-08-31T05:57:02;16.20;99.90
23335;DHT22;11839;48.598;8.870;2023-08-31T05:59:32;16.20;99.90
23335;DHT22;11839;48.598;8.870;2023-08-31T06:01:59;16.20;99.90
23335;DHT22;11839;48.598;8.870;2023-08-31T06:04:25;16.20;99.90
23335;DHT22;11839;48.598;8.870;2023-08-31T06:06:52;16.40;99.90
23335;DHT22;11839;48.598;8.870;2023-08-31T06:09:19;16.30;99.90
23335;DHT22;11839;48.598;8.870;2023-08-31T06:11:46;16.30;99.90
23335;DHT22;11839;48.598;8.870;2023-08-31T06:14:13;16.10;99.90
23335;DHT22;11839;48.598;8.870;2023-08-31T06:16:41;16.10;99.90
23335;DHT22;11839;48.598;8.870;2023-08-31T06:19:09;16.00;99.90
23335;DHT22;11839;48.598;8.870;2023-08-31T06:21:36;16.20;99.90
23335;DHT22;11839;48.598;8.870;2023-08-31T06:24:03;16.20;99.90
23335;DHT22;11839;48.598;8.870;2023-08-31T06:26:32;16.30;99.90
23335;DHT22;11839;48.598;8.870;2023-08-31T06:28:59;16.40;99.90
23335;DHT22;11839;48.598;8.870;2023-08-31T06:31:25;16.50;99.90
23335;DHT22;11839;48.598;8.870;2023-08-31T06:33:53;16.50;99.90
23335;DHT22;11839;48.598;8.870;2023-08-31T06:36:20;16.70;99.90
23335;DHT22;11839;48.598;8.870;2023-08-31T06:38:47;16.60;99.90
23335;DHT22;11839;48.598;8.870;2023-08-31T06:41:14;16.80;99.90
23335;DHT22;11839;48.598;8.870;2023-08-31T06:43:41;16.90;99.90
23335;DHT22;11839;48.598;8.870;2023-08-31T06:46:08;17.30;99.90
23335;DHT22;11839;48.598;8.870;2023-08-31T06:48:34;17.30;99.90
23335;DHT22;11839;48.598;8.870;2023-08-31T06:51:03;17.50;99.90
23335;DHT22;11839;48.598;8.870;2023-08-31T06:53:29;17.70;99.90
23335;DHT22;11839;48.598;8.870;2023-08-31T06:55:56;17.70;99.90
23335;DHT22;11839;48.598;8.870;2023-08-31T06:58:23;17.70;99.90
23335;DHT22;11839;48.598;8.870;2023-08-31T07:00:50;17.90;99.90
23335;DHT22;11839;48.598;8.870;2023-08-31T07:03:17;17.90;99.90
23335;DHT22;11839;48.598;8.870;2023-08-31T07:05:44;18.20;99.90
23335;DHT22;11839;48.598;8.870;2023-08-31T07:08:12;18.30;99.90
23335;DHT22;11839;48.598;8.870;2023-08-31T07:10:39;18.30;99.90
23335;DHT22;11839;48.598;8.870;2023-08-31T07:13:05;18.40;99.90
23335;DHT22;11839;48.598;8.870;2023-08-31T07:15:32;18.60;99.90
23335;DHT22;11839;48.598;8.870;2023-08-31T07:17:59;18.60;99.90
23335;DHT22;11839;48.598;8.870;2023-08-31T07:20:26;18.80;99.90
23335;DHT22;11839;48.598;8.870;2023-08-31T07:22:53;18.70;99.90
23335;DHT22;11839;48.598;8.870;2023-08-31T07:25:21;18.60;99.90
23335;DHT22;11839;48.598;8.870;2023-08-31T07:27:48;18.80;99.90
23335;DHT22;11839;48.598;8.870;2023-08-31T07:30:15;18.70;99.90
23335;DHT22;11839;48.598;8.870;2023-08-31T07:32:42;19.00;99.90
23335;DHT22;11839;48.598;8.870;2023-08-31T07:35:09;19.10;99.90
23335;DHT22;11839;48.598;8.870;2023-08-31T07:37:35;19.10;99.90
23335;DHT22;11839;48.598;8.870;2023-08-31T07:40:03;19.00;99.90
23335;DHT22;11839;48.598;8.870;2023-08-31T07:42:35;19.00;99.90
23335;DHT22;11839;48.598;8.870;2023-08-31T07:45:02;19.30;99.90
23335;DHT22;11839;48.598;8.870;2023-08-31T07:47:30;19.50;99.90
23335;DHT22;11839;48.598;8.870;2023-08-31T07:49:56;19.60;99.90
23335;DHT22;11839;48.598;8.870;2023-08-31T07:52:23;19.90;99.90
23335;DHT22;11839;48.598;8.870;2023-08-31T07:54:50;19.90;99.90
23335;DHT22;11839;48.598;8.870;2023-08-31T07:57:17;19.70;99.90
23335;DHT22;11839;48.598;8.870;2023-08-31T07:59:45;19.80;99.90
23335;DHT22;11839;48.598;8.870;2023-08-31T08:02:12;19.90;99.90
23335;DHT22;11839;48.598;8.870;2023-08-31T08:04:38;19.90;99.90
23335;DHT22;11839;48.598;8.870;2023-08-31T08:07:05;19.40;99.90
23335;DHT22;11839;48.598;8.870;2023-08-31T08:09:32;19.50;99.90
23335;DHT22;11839;48.598;8.870;2023-08-31T08:11:59;19.60;99.90
23335;DHT22;11839;48.598;8.870;2023-08-31T08:14:25;19.80;99.90
23335;DHT22;11839;48.598;8.870;2023-08-31T08:16:54;20.10;99.90
23335;DHT22;11839;48.598;8.870;2023-08-31T08:19:21;20.60;99.90
23335;DHT22;11839;48.598;8.870;2023-08-31T08:21:49;20.40;99.90
23335;DHT22;11839;48.598;8.870;2023-08-31T08:24:16;20.20;99.90
23335;DHT22;11839;48.598;8.870;2023-08-31T08:26:42;20.10;99.90
23335;DHT22;11839;48.598;8.870;2023-08-31T08:29:09;20.20;99.90
23335;DHT22;11839;48.598;8.870;2023-08-31T08:31:36;19.90;99.90
23335;DHT22;11839;48.598;8.870;2023-08-31T08:34:04;19.90;99.90
23335;DHT22;11839;48.598;8.870;2023-08-31T08:36:31;19.60;99.90
23335;DHT22;11839;48.598;8.870;2023-08-31T08:38:58;19.80;99.90
23335;DHT22;11839;48.598;8.870;2023-08-31T08:41:28;20.00;99.90
23335;DHT22;11839;48.598;8.870;2023-08-31T08:43:59;20.40;99.90
23335;DHT22;11839;48.598;8.870;2023-08-31T08:46:30;20.50;99.90
23335;DHT22;11839;48.598;8.870;2023-08-31T08:48:58;20.30;99.90
23335;DHT22;11839;48.598;8.870;2023-08-31T08:51:27;20.30;99.90
23335;DHT22;11839;48.598;8.870;2023-08-31T08:53:54;20.50;99.90
23335;DHT22;11839;48.598;8.870;2023-08-31T08:56:21;20.40;99.90
23335;DHT22;11839;48.598;8.870;2023-08-31T08:58:48;20.40;99.90
23335;DHT22;11839;48.598;8.870;2023-08-31T09:01:15;20.10;99.90
23335;DHT22;11839;48.598;8.870;2023-08-31T09:03:43;20.00;99.90
23335;DHT22;11839;48.598;8.870;2023-08-31T09:06:10;20.30;99.90
23335;DHT22;11839;48.598;8.870;2023-08-31T09:08:41;20.10;99.90
23335;DHT22;11839;48.598;8.870;2023-08-31T09:11:08;20.00;99.90
23335;DHT22;11839;48.598;8.870;2023-08-31T09:13:35;20.30;99.90
23335;DHT22;11839;48.598;8.870;2023-08-31T09:16:02;20.50;99.90
23335;DHT22;11839;48.598;8.870;2023-08-31T09:18:30;20.50;99.90
23335;DHT22;11839;48.598;8.870;2023-08-31T09:20:59;19.90;99.90
23335;DHT22;11839;48.598;8.870;2023-08-31T09:23:27;19.50;99.90
23335;DHT22;11839;48.598;8.870;2023-08-31T09:25:56;19.50;99.90
23335;DHT22;11839;48.598;8.870;2023-08-31T09:28:24;19.80;99.90
23335;DHT22;11839;48.598;8.870;2023-08-31T09:30:52;19.80;99.90
23335;DHT22;11839;48.598;8.870;2023-08-31T09:33:20;20.00;99.90
23335;DHT22;11839;48.598;8.870;2023-08-31T09:35:49;20.20;99.90
23335;DHT22;11839;48.598;8.870;2023-08-31T09:38:17;20.40;99.90
23335;DHT22;11839;48.598;8.870;2023-08-31T09:40:44;20.50;99.90
23335;DHT22;11839;48.598;8.870;2023-08-31T09:43:12;20.40;99.90
23335;DHT22;11839;48.598;8.870;2023-08-31T09:45:45;20.10;99.90
23335;DHT22;11839;48.598;8.870;2023-08-31T09:48:13;20.30;99.90
23335;DHT22;11839;48.598;8.870;2023-08-31T09:50:43;20.20;99.90
23335;DHT22;11839;48.598;8.870;2023-08-31T09:53:11;20.10;99.90
23335;DHT22;11839;48.598;8.870;2023-08-31T09:55:39;20.50;99.90
23335;DHT22;11839;48.598;8.870;2023-08-31T09:58:08;20.60;99.90
23335;DHT22;11839;48.598;8.870;2023-08-31T10:00:37;20.60;99.90
23335;DHT22;11839;48.598;8.870;2023-08-31T10:03:05;20.20;99.90
23335;DHT22;11839;48.598;8.870;2023-08-31T10:05:32;20.20;99.90
23335;DHT22;11839;48.598;8.870;2023-08-31T10:08:00;20.40;99.90
23335;DHT22;11839;48.598;8.870;2023-08-31T10:10:28;20.90;99.90
23335;DHT22;11839;48.598;8.870;2023-08-31T10:12:55;21.40;99.90
23335;DHT22;11839;48.598;8.870;2023-08-31T10:15:22;21.90;99.90
23335;DHT22;11839;48.598;8.870;2023-08-31T10:17:51;21.90;99.90
23335;DHT22;11839;48.598;8.870;2023-08-31T10:20:18;21.90;99.80
23335;DHT22;11839;48.598;8.870;2023-08-31T10:22:45;21.90;98.90
23335;DHT22;11839;48.598;8.870;2023-08-31T10:25:12;21.80;99.20
23335;DHT22;11839;48.598;8.870;2023-08-31T10:27:39;21.70;99.10
23335;DHT22;11839;48.598;8.870;2023-08-31T10:30:23;21.60;99.30
23335;DHT22;11839;48.598;8.870;2023-08-31T10:33:20;21.70;99.10
23335;DHT22;11839;48.598;8.870;2023-08-31T10:35:51;21.60;98.90
23335;DHT22;11839;48.598;8.870;2023-08-31T10:38:26;21.80;98.50
23335;DHT22;11839;48.598;8.870;2023-08-31T10:41:20;21.90;98.50
23335;DHT22;11839;48.598;8.870;2023-08-31T10:43:49;21.40;98.00
23335;DHT22;11839;48.598;8.870;2023-08-31T10:46:30;21.10;98.30
23335;DHT22;11839;48.598;8.870;2023-08-31T10:48:59;21.20;98.90
23335;DHT22;11839;48.598;8.870;2023-08-31T10:51:28;21.30;98.50
23335;DHT22;11839;48.598;8.870;2023-08-31T10:54:06;21.10;97.70
23335;DHT22;11839;48.598;8.870;2023-08-31T10:59:27;20.90;97.70
23335;DHT22;11839;48.598;8.870;2023-08-31T11:02:07;21.10;97.80
23335;DHT22;11839;48.598;8.870;2023-08-31T11:04:54;21.30;98.60
23335;DHT22;11839;48.598;8.870;2023-08-31T11:07:24;21.50;98.80
23335;DHT22;11839;48.598;8.870;2023-08-31T11:09:51;22.00;98.20
23335;DHT22;11839;48.598;8.870;2023-08-31T11:12:22;22.10;97.10
23335;DHT22;11839;48.598;8.870;2023-08-31T11:14:49;21.90;97.30
23335;DHT22;11839;48.598;8.870;2023-08-31T11:17:16;22.20;97.70
23335;DHT22;11839;48.598;8.870;2023-08-31T11:19:44;22.50;97.40
23335;DHT22;11839;48.598;8.870;2023-08-31T11:22:11;22.60;97.10
23335;DHT22;11839;48.598;8.870;2023-08-31T11:24:38;22.70;97.10
23335;DHT22;11839;48.598;8.870;2023-08-31T11:27:07;22.30;97.10
23335;DHT22;11839;48.598;8.870;2023-08-31T11:29:37;22.30;97.10
23335;DHT22;11839;48.598;8.870;2023-08-31T11:32:05;22.40;97.00
23335;DHT22;11839;48.598;8.870;2023-08-31T11:34:32;22.50;96.70
23335;DHT22;11839;48.598;8.870;2023-08-31T11:37:00;22.20;96.70
23335;DHT22;11839;48.598;8.870;2023-08-31T11:39:27;21.80;96.70
23335;DHT22;11839;48.598;8.870;2023-08-31T11:41:54;21.50;98.10
23335;DHT22;11839;48.598;8.870;2023-08-31T11:44:21;22.00;98.90
23335;DHT22;11839;48.598;8.870;2023-08-31T11:46:49;22.50;98.20
23335;DHT22;11839;48.598;8.870;2023-08-31T11:49:17;22.70;98.40
23335;DHT22;11839;48.598;8.870;2023-08-31T11:51:45;22.80;97.30
23335;DHT22;11839;48.598;8.870;2023-08-31T11:54:14;22.70;97.20
23335;DHT22;11839;48.598;8.870;2023-08-31T11:56:43;22.30;97.50
23335;DHT22;11839;48.598;8.870;2023-08-31T11:59:12;22.30;98.10
23335;DHT22;11839;48.598;8.870;2023-08-31T12:01:42;22.50;97.90
23335;DHT22;11839;48.598;8.870;2023-08-31T12:04:11;22.60;98.30
23335;DHT22;11839;48.598;8.870;2023-08-31T12:06:38;22.40;97.00
23335;DHT22;11839;48.598;8.870;2023-08-31T12:09:05;22.40;97.50
23335;DHT22;11839;48.598;8.870;2023-08-31T12:11:34;22.90;97.40
23335;DHT22;11839;48.598;8.870;2023-08-31T12:14:01;23.20;97.30
23335;DHT22;11839;48.598;8.870;2023-08-31T12:16:33;23.40;97.70
23335;DHT22;11839;48.598;8.870;2023-08-31T12:19:02;23.40;97.30
23335;DHT22;11839;48.598;8.870;2023-08-31T12:21:30;23.40;95.80
23335;DHT22;11839;48.598;8.870;2023-08-31T12:23:57;23.50;96.20
23335;DHT22;11839;48.598;8.870;2023-08-31T12:26:24;23.40;96.60
23335;DHT22;11839;48.598;8.870;2023-08-31T12:28:52;23.20;96.00
23335;DHT22;11839;48.598;8.870;2023-08-31T12:31:19;23.40;95.40
23335;DHT22;11839;48.598;8.870;2023-08-31T12:33:46;23.20;96.10
23335;DHT22;11839;48.598;8.870;2023-08-31T12:36:13;23.50;96.70
23335;DHT22;11839;48.598;8.870;2023-08-31T12:38:40;23.60;96.10
23335;DHT22;11839;48.598;8.870;2023-08-31T12:41:07;23.60;95.70
23335;DHT22;11839;48.598;8.870;2023-08-31T12:43:34;23.50;96.60
23335;DHT22;11839;48.598;8.870;2023-08-31T12:46:03;23.60;95.40
23335;DHT22;11839;48.598;8.870;2023-08-31T12:48:31;23.60;95.40
23335;DHT22;11839;48.598;8.870;2023-08-31T12:50:58;23.70;95.50
23335;DHT22;11839;48.598;8.870;2023-08-31T12:53:27;23.80;95.60
23335;DHT22;11839;48.598;8.870;2023-08-31T12:55:54;23.50;96.40
23335;DHT22;11839;48.598;8.870;2023-08-31T12:58:21;23.10;95.80
23335;DHT22;11839;48.598;8.870;2023-08-31T13:00:48;23.60;96.60
23335;DHT22;11839;48.598;8.870;2023-08-31T13:03:17;23.80;95.50
23335;DHT22;11839;48.598;8.870;2023-08-31T13:05:44;23.60;95.40
23335;DHT22;11839;48.598;8.870;2023-08-31T13:08:10;23.50;94.30
23335;DHT22;11839;48.598;8.870;2023-08-31T13:10:37;23.20;95.20
23335;DHT22;11839;48.598;8.870;2023-08-31T13:13:04;22.70;95.30
23335;DHT22;11839;48.598;8.870;2023-08-31T13:15:31;22.70;95.00
23335;DHT22;11839;48.598;8.870;2023-08-31T13:17:58;22.70;95.80
23335;DHT22;11839;48.598;8.870;2023-08-31T13:20:26;22.60;95.00
23335;DHT22;11839;48.598;8.870;2023-08-31T13:22:53;22.80;96.10
23335;DHT22;11839;48.598;8.870;2023-08-31T13:25:20;22.80;96.40
23335;DHT22;11839;48.598;8.870;2023-08-31T13:27:47;22.30;96.50
23335;DHT22;11839;48.598;8.870;2023-08-31T13:30:14;22.40;96.80
23335;DHT22;11839;48.598;8.870;2023-08-31T13:32:40;23.00;96.50
23335;DHT22;11839;48.598;8.870;2023-08-31T13:35:08;23.50;95.20
23335;DHT22;11839;48.598;8.870;2023-08-31T13:37:37;23.60;94.70
23335;DHT22;11839;48.598;8.870;2023-08-31T13:40:05;23.60;95.00
23335;DHT22;11839;48.598;8.870;2023-08-31T13:42:34;23.20;95.20
23335;DHT22;11839;48.598;8.870;2023-08-31T13:45:04;23.00;95.80
23335;DHT22;11839;48.598;8.870;2023-08-31T13:47:31;23.00;96.30
23335;DHT22;11839;48.598;8.870;2023-08-31T13:49:58;23.00;96.60
23335;DHT22;11839;48.598;8.870;2023-08-31T13:52:25;22.70;95.80
23335;DHT22;11839;48.598;8.870;2023-08-31T13:54:54;22.50;96.70
23335;DHT22;11839;48.598;8.870;2023-08-31T13:57:20;22.30;96.00
23335;DHT22;11839;48.598;8.870;2023-08-31T13:59:47;22.50;97.20
23335;DHT22;11839;48.598;8.870;2023-08-31T14:02:14;23.10;96.60
23335;DHT22;11839;48.598;8.870;2023-08-31T14:04:41;24.30;95.80
23335;DHT22;11839;48.598;8.870;2023-08-31T14:07:08;25.20;94.60
23335;DHT22;11839;48.598;8.870;2023-08-31T14:09:35;25.90;94.30
23335;DHT22;11839;48.598;8.870;2023-08-31T14:12:03;26.10;92.30
23335;DHT22;11839;48.598;8.870;2023-08-31T14:14:30;26.10;92.20
23335;DHT22;11839;48.598;8.870;2023-08-31T14:16:57;26.40;92.50
23335;DHT22;11839;48.598;8.870;2023-08-31T14:19:24;26.70;92.30
23335;DHT22;11839;48.598;8.870;2023-08-31T14:21:50;27.30;91.80
23335;DHT22;11839;48.598;8.870;2023-08-31T14:24:18;28.00;91.20
23335;DHT22;11839;48.598;8.870;2023-08-31T14:26:45;27.50;90.40
23335;DHT22;11839;48.598;8.870;2023-08-31T14:29:13;27.20;91.60
23335;DHT22;11839;48.598;8.870;2023-08-31T14:31:40;27.00;92.00
23335;DHT22;11839;48.598;8.870;2023-08-31T14:34:06;26.90;92.10
23335;DHT22;11839;48.598;8.870;2023-08-31T14:36:33;27.10;91.50
23335;DHT22;11839;48.598;8.870;2023-08-31T14:39:00;26.20;92.30
23335;DHT22;11839;48.598;8.870;2023-08-31T14:41:27;25.30;93.30
23335;DHT22;11839;48.598;8.870;2023-08-31T14:43:56;26.50;93.60
23335;DHT22;11839;48.598;8.870;2023-08-31T14:46:24;26.30;92.50
23335;DHT22;11839;48.598;8.870;2023-08-31T14:48:51;25.60;93.50
23335;DHT22;11839;48.598;8.870;2023-08-31T14:51:17;25.20;93.80
23335;DHT22;11839;48.598;8.870;2023-08-31T14:53:44;25.00;94.10
23335;DHT22;11839;48.598;8.870;2023-08-31T14:56:11;24.60;94.30
23335;DHT22;11839;48.598;8.870;2023-08-31T14:58:38;24.50;95.10
23335;DHT22;11839;48.598;8.870;2023-08-31T15:01:04;24.50;94.70
23335;DHT22;11839;48.598;8.870;2023-08-31T15:03:32;24.40;95.40
23335;DHT22;11839;48.598;8.870;2023-08-31T15:05:59;24.50;95.20
23335;DHT22;11839;48.598;8.870;2023-08-31T15:08:35;24.20;95.40
23335;DHT22;11839;48.598;8.870;2023-08-31T15:11:03;23.50;96.40
23335;DHT22;11839;48.598;8.870;2023-08-31T15:13:29;22.90;97.20
23335;DHT22;11839;48.598;8.870;2023-08-31T15:15:56;22.30;97.50
23335;DHT22;11839;48.598;8.870;2023-08-31T15:18:24;22.20;97.70
23335;DHT22;11839;48.598;8.870;2023-08-31T15:20:53;22.20;98.00
23335;DHT22;11839;48.598;8.870;2023-08-31T15:23:19;22.10;98.60
23335;DHT22;11839;48.598;8.870;2023-08-31T15:25:46;21.90;99.00
23335;DHT22;11839;48.598;8.870;2023-08-31T15:28:13;22.00;99.50
23335;DHT22;11839;48.598;8.870;2023-08-31T15:30:40;22.10;99.70
23335;DHT22;11839;48.598;8.870;2023-08-31T15:33:07;21.80;99.30
23335;DHT22;11839;48.598;8.870;2023-08-31T15:35:34;21.50;99.90
23335;DHT22;11839;48.598;8.870;2023-08-31T15:38:02;21.60;99.90